Time;durP1;ratioP1;P1;durP2;ratioP2;P2;SDS_P1;SDS_P2;PMS_P1;PMS_P2;Temp;Humidity;BMP_temperature;BMP_pressure;BME280_temperature;BME280_humidity;BME280_pressure;Samples;Min_cycle;Max_cycle;Signal;HPM_P1;HPM_P2
2022/08/14 00:00:58;;;;;;;7.13;5.30;;;;;;;21.12;51.96;101038.13;4907420;29;20040;-81
2022/08/14 00:03:27;;;;;;;9.02;5.57;;;;;;;21.12;51.93;101037.31;4918775;29;20071;-81
2022/08/14 00:05:54;;;;;;;7.10;6.05;;;;;;;21.06;52.18;101044.25;4907637;29;20425;-81
2022/08/14 00:08:20;;;;;;;6.40;5.57;;;;;;;21.05;52.44;101029.94;4906605;29;20115;-81
2022/08/14 00:10:46;;;;;;;9.40;5.75;;;;;;;20.94;52.81;101034.91;4900914;29;20434;-80
2022/08/14 00:13:12;;;;;;;9.35;6.05;;;;;;;20.93;52.91;101025.97;4902349;29;20029;-80
2022/08/14 00:15:40;;;;;;;8.15;5.78;;;;;;;20.85;53.37;101024.19;4900961;29;20039;-81
2022/08/14 00:18:08;;;;;;;11.13;6.00;;;;;;;20.73;53.80;101017.50;4911867;29;20031;-81
2022/08/14 00:20:36;;;;;;;7.50;6.65;;;;;;;20.72;53.82;101021.25;4907450;29;20401;-81
2022/08/14 00:23:03;;;;;;;8.70;6.45;;;;;;;20.74;53.48;101021.06;4906033;29;20021;-81
2022/08/14 00:25:28;;;;;;;7.22;5.97;;;;;;;20.71;53.36;101016.84;4900783;29;20029;-81
2022/08/14 00:27:54;;;;;;;8.20;5.82;;;;;;;20.70;53.21;101010.63;4912783;29;20046;-80
2022/08/14 00:30:20;;;;;;;7.57;5.88;;;;;;;20.60;54.74;101014.53;4893837;29;20544;-80
2022/08/14 00:32:45;;;;;;;11.50;6.10;;;;;;;20.57;54.51;101006.78;4900811;29;20032;-80
2022/08/14 00:35:11;;;;;;;8.98;6.72;;;;;;;20.57;53.65;100999.56;4908045;29;20028;-82
2022/08/14 00:37:43;;;;;;;8.35;6.38;;;;;;;20.57;53.32;101004.09;4915718;29;20024;-81
2022/08/14 00:40:11;;;;;;;8.60;6.30;;;;;;;20.46;54.52;101003.50;4915540;29;20040;-81
2022/08/14 00:42:37;;;;;;;6.68;5.97;;;;;;;20.48;54.55;101001.47;4910766;29;20114;-80
2022/08/14 00:45:04;;;;;;;8.20;6.63;;;;;;;20.43;54.25;100993.06;4910062;29;20458;-80
2022/08/14 00:47:30;;;;;;;12.93;6.60;;;;;;;20.41;53.62;100989.72;4912407;29;20044;-80
2022/08/14 00:49:55;;;;;;;8.13;6.40;;;;;;;20.41;53.87;100978.91;4900532;29;20111;-81
2022/08/14 00:52:21;;;;;;;8.50;6.53;;;;;;;20.34;54.18;100978.78;4940507;23;20059;-43
2022/08/14 00:54:52;;;;;;;7.70;6.80;;;;;;;20.27;54.12;100980.53;4914980;29;20024;-46
2022/08/14 00:57:18;;;;;;;6.93;6.20;;;;;;;20.32;53.64;100975.44;4917033;29;20061;-43
2022/08/14 00:59:44;;;;;;;10.07;6.10;;;;;;;20.32;54.10;100966.53;4915992;29;20547;-44
2022/08/14 01:02:11;;;;;;;9.30;6.60;;;;;;;20.26;54.44;100962.66;4912115;29;20123;-46
2022/08/14 01:04:37;;;;;;;9.23;6.70;;;;;;;20.25;54.22;100969.09;4917836;29;20375;-44
2022/08/14 01:07:03;;;;;;;6.70;6.10;;;;;;;20.20;54.26;100962.53;4909500;29;20036;-44
2022/08/14 01:09:29;;;;;;;8.02;6.75;;;;;;;20.24;53.92;100959.31;4917104;29;20451;-43
2022/08/14 01:11:56;;;;;;;8.93;6.35;;;;;;;20.18;53.93;100959.19;4917336;29;20028;-44
2022/08/14 01:14:22;;;;;;;11.32;6.93;;;;;;;20.15;54.71;100949.56;4917489;29;20029;-44
2022/08/14 01:16:48;;;;;;;9.02;6.38;;;;;;;20.10;54.22;100952.84;4916794;29;20040;-45
2022/08/14 01:21:58;;;;;;;8.27;7.03;;;;;;;20.04;54.36;100953.53;4915645;29;20039;-47
2022/08/14 01:24:24;;;;;;;9.63;6.15;;;;;;;20.04;55.25;100953.53;4917430;29;20032;-44
2022/08/14 01:26:50;;;;;;;8.45;6.22;;;;;;;20.03;54.81;100956.41;4906966;29;20044;-45
2022/08/14 01:29:18;;;;;;;8.25;6.63;;;;;;;19.98;54.67;100951.53;4917149;29;20028;-45
2022/08/14 01:34:09;;;;;;;13.55;7.10;;;;;;;19.90;55.22;100951.56;4916173;29;20484;-44
2022/08/14 01:36:37;;;;;;;8.05;6.55;;;;;;;19.87;55.45;100952.78;4916898;29;20039;-44
2022/08/14 01:39:11;;;;;;;8.40;6.75;;;;;;;19.84;54.62;100941.53;4904509;29;20030;-47
2022/08/14 01:41:37;;;;;;;11.35;6.50;;;;;;;19.84;55.71;100955.00;4907401;29;20391;-45
2022/08/14 01:44:07;;;;;;;9.30;6.15;;;;;;;19.82;55.20;100955.16;4916905;29;20032;-44
2022/08/14 01:46:36;;;;;;;9.82;6.65;;;;;;;19.79;55.46;100955.50;4915989;29;20087;-45
2022/08/14 01:49:04;;;;;;;7.80;7.00;;;;;;;19.75;56.05;100963.13;4915413;29;20137;-48
2022/08/14 01:51:31;;;;;;;7.70;6.40;;;;;;;19.73;55.41;100964.25;4916738;29;20066;-45
2022/08/14 01:54:00;;;;;;;13.90;6.45;;;;;;;19.67;55.71;100960.41;4913980;29;20045;-44
2022/08/14 01:56:39;;;;;;;9.73;6.60;;;;;;;19.67;55.69;100960.41;4916547;29;20039;-46
2022/08/14 01:59:20;;;;;;;9.80;6.53;;;;;;;19.60;55.77;100948.63;4902480;29;20048;-45
2022/08/14 02:01:48;;;;;;;7.88;6.97;;;;;;;19.63;55.67;100944.78;4888984;29;20033;-47
2022/08/14 02:04:14;;;;;;;9.95;6.65;;;;;;;19.56;56.29;100947.31;4898312;29;20084;-47
2022/08/14 02:06:39;;;;;;;7.85;6.60;;;;;;;19.51;56.67;100941.63;4897711;29;20028;-47
2022/08/14 02:09:06;;;;;;;10.60;6.57;;;;;;;19.47;56.53;100948.34;4898302;29;20055;-44
2022/08/14 02:11:34;;;;;;;10.23;6.70;;;;;;;19.45;56.72;100947.69;4897651;29;20068;-45
2022/08/14 02:14:03;;;;;;;7.57;6.70;;;;;;;19.42;56.56;100938.13;4898232;29;20029;-46
2022/08/14 02:16:35;;;;;;;8.68;7.00;;;;;;;19.33;56.88;100945.38;4901172;29;20425;-45
2022/08/14 02:19:04;;;;;;;7.85;7.15;;;;;;;19.32;56.86;100945.56;4911350;29;20036;-44
2022/08/14 02:21:31;;;;;;;8.93;7.05;;;;;;;19.24;57.33;100941.03;4903391;29;20031;-43
2022/08/14 02:24:00;;;;;;;8.05;7.30;;;;;;;19.17;57.55;100931.97;4904484;29;20556;-45
2022/08/14 02:26:29;;;;;;;8.43;7.05;;;;;;;19.18;57.46;100937.16;4897448;29;20024;-44
2022/08/14 02:28:59;;;;;;;8.23;7.13;;;;;;;19.15;58.29;100940.22;4891827;29;20120;-45
2022/08/14 02:31:29;;;;;;;7.88;7.07;;;;;;;19.06;57.87;100943.09;4885530;29;20044;-43
2022/08/14 02:33:55;;;;;;;8.65;6.82;;;;;;;19.02;58.16;100939.91;4894995;29;20485;-44
2022/08/14 02:36:20;;;;;;;10.13;7.60;;;;;;;19.05;57.94;100923.38;4916073;29;20420;-45
2022/08/14 02:38:47;;;;;;;9.65;6.85;;;;;;;19.03;58.15;100930.78;4909400;29;20031;-43
2022/08/14 02:41:12;;;;;;;7.47;6.72;;;;;;;18.93;58.59;100925.59;4915520;29;20028;-45
2022/08/14 02:43:39;;;;;;;8.15;6.95;;;;;;;18.87;59.15;100937.06;4915253;29;20079;-48
2022/08/14 02:46:09;;;;;;;13.23;8.15;;;;;;;18.90;58.41;100934.03;4907975;29;20039;-43
2022/08/14 02:48:38;;;;;;;10.38;7.72;;;;;;;18.89;58.07;100924.25;4901672;29;20112;-44
2022/08/14 02:51:06;;;;;;;11.23;7.75;;;;;;;18.80;58.97;100922.53;4904060;29;20560;-45
2022/08/14 02:53:32;;;;;;;9.30;7.88;;;;;;;18.84;58.35;100932.84;4911925;29;20056;-44
2022/08/14 02:55:59;;;;;;;12.05;8.32;;;;;;;18.80;58.47;100934.19;4915623;29;20511;-44
2022/08/14 02:58:25;;;;;;;9.52;8.52;;;;;;;18.77;58.86;100934.50;4914774;29;20391;-45
2022/08/14 03:00:51;;;;;;;10.52;7.75;;;;;;;18.78;58.79;100929.97;4912960;29;20043;-45
2022/08/14 03:03:19;;;;;;;14.27;8.35;;;;;;;18.71;58.84;100920.88;4914932;29;20095;-45
2022/08/14 03:05:44;;;;;;;11.20;8.30;;;;;;;18.68;59.04;100914.84;4915696;29;20020;-44
2022/08/14 03:08:12;;;;;;;12.13;8.40;;;;;;;18.65;58.92;100909.78;4915056;29;20047;-43
2022/08/14 03:10:38;;;;;;;10.90;8.20;;;;;;;18.60;59.60;100916.69;4910361;29;20040;-43
2022/08/14 03:13:05;;;;;;;9.20;8.30;;;;;;;18.55;59.61;100909.13;4915242;29;20465;-43
2022/08/14 03:15:53;;;;;;;9.07;8.18;;;;;;;18.52;59.96;100909.47;4915629;29;20504;-44
2022/08/14 03:18:17;;;;;;;9.00;8.10;;;;;;;18.47;59.98;100909.13;4905914;29;20062;-44
2022/08/14 03:20:42;;;;;;;12.00;8.00;;;;;;;18.42;60.27;100912.31;4912778;29;20075;-44
2022/08/14 03:23:08;;;;;;;8.80;7.90;;;;;;;18.45;59.89;100908.44;4913368;29;20276;-44
2022/08/14 03:25:34;;;;;;;9.20;8.23;;;;;;;18.44;60.27;100914.84;4915289;29;20024;-46
2022/08/14 03:28:08;;;;;;;10.20;8.77;;;;;;;18.38;59.69;100912.81;4914617;29;20028;-44
2022/08/14 03:30:34;;;;;;;11.05;8.45;;;;;;;18.34;60.60;100909.63;4902786;29;20037;-44
2022/08/14 03:33:00;;;;;;;10.40;8.32;;;;;;;18.31;60.46;100902.72;4913696;29;20058;-44
2022/08/14 03:35:26;;;;;;;11.60;7.82;;;;;;;18.29;60.45;100895.84;4914692;29;20088;-44
2022/08/14 03:37:51;;;;;;;11.77;8.52;;;;;;;18.26;60.63;100896.16;4908124;29;20035;-44
2022/08/14 03:40:21;;;;;;;10.27;7.55;;;;;;;18.23;60.65;100891.94;4914463;29;20423;-44
2022/08/14 03:42:47;;;;;;;9.52;7.88;;;;;;;18.20;60.61;100891.44;4911350;29;20611;-45
2022/08/14 03:45:13;;;;;;;10.90;8.90;;;;;;;18.16;60.87;100890.13;4908822;29;20032;-45
2022/08/14 03:47:42;;;;;;;9.90;8.43;;;;;;;18.16;61.00;100900.88;4915071;29;20380;-45
2022/08/14 03:50:09;;;;;;;12.68;8.20;;;;;;;18.13;61.09;100896.66;4898331;29;20036;-45
2022/08/14 03:52:36;;;;;;;11.30;8.40;;;;;;;18.10;60.96;100905.91;4879518;29;20042;-44
2022/08/14 03:55:05;;;;;;;10.48;7.60;;;;;;;18.03;61.21;100898.66;4894335;29;20079;-47
2022/08/14 03:57:31;;;;;;;11.48;8.45;;;;;;;18.03;61.25;100895.97;4912132;29;20024;-44
2022/08/14 03:59:57;;;;;;;10.80;8.48;;;;;;;17.98;61.43;100904.50;4899683;29;20025;-44
2022/08/14 04:02:22;;;;;;;12.75;8.55;;;;;;;17.99;61.35;100900.84;4900075;29;20039;-44
2022/08/14 04:04:48;;;;;;;10.20;9.00;;;;;;;17.96;60.91;100903.00;4900021;29;20021;-43
2022/08/14 04:07:13;;;;;;;15.18;9.18;;;;;;;17.89;62.15;100898.28;4906577;29;20051;-45
2022/08/14 04:09:38;;;;;;;10.52;9.13;;;;;;;17.80;62.40;100907.28;4906573;29;20072;-46
2022/08/14 04:12:04;;;;;;;11.05;8.77;;;;;;;17.84;61.61;100899.75;4918509;29;20044;-48
2022/08/14 04:14:30;;;;;;;9.73;8.20;;;;;;;17.82;61.98;100894.56;4918421;29;20061;-47
2022/08/14 04:16:55;;;;;;;10.82;8.20;;;;;;;17.78;61.83;100895.03;4917749;29;20036;-45
2022/08/14 04:19:22;;;;;;;13.45;8.55;;;;;;;17.72;62.41;100883.13;4910906;29;20083;-46
2022/08/14 04:21:49;;;;;;;10.77;8.68;;;;;;;17.72;62.23;100886.63;4893670;29;20028;-44
2022/08/14 04:24:16;;;;;;;10.05;8.70;;;;;;;17.71;62.28;100886.78;4917606;29;20039;-46
2022/08/14 04:26:43;;;;;;;9.63;8.55;;;;;;;17.70;62.22;100885.97;4918201;29;20031;-48
2022/08/14 04:29:09;;;;;;;12.50;8.73;;;;;;;17.67;62.40;100880.91;4912878;29;20034;-44
2022/08/14 04:31:36;;;;;;;9.75;8.63;;;;;;;17.64;62.26;100878.53;4918486;29;20400;-44
2022/08/14 04:34:02;;;;;;;11.80;9.20;;;;;;;17.65;62.16;100882.06;4909324;29;20131;-46
2022/08/14 04:36:28;;;;;;;10.65;9.70;;;;;;;17.55;62.61;100874.13;4914184;29;20035;-44
2022/08/14 04:44:21;;;;;;;11.43;10.32;;;;;;;17.54;62.89;100864.41;4913417;29;20099;-45
2022/08/14 04:49:30;;;;;;;14.43;10.27;;;;;;;17.51;63.46;100859.38;4899523;29;20112;-46
2022/08/14 04:51:56;;;;;;;14.57;10.57;;;;;;;17.50;63.04;100858.53;4898242;29;20048;-44
2022/08/14 04:54:25;;;;;;;11.70;9.32;;;;;;;17.53;63.46;100857.34;4903715;29;20088;-45
2022/08/14 04:56:50;;;;;;;11.25;10.13;;;;;;;17.51;63.95;100860.19;4913268;29;20032;-47
2022/08/14 04:59:16;;;;;;;17.23;10.18;;;;;;;17.52;63.78;100863.72;4911045;29;20028;-46
2022/08/14 05:01:43;;;;;;;15.27;9.87;;;;;;;17.55;63.60;100858.88;4912359;29;20028;-44
2022/08/14 05:04:09;;;;;;;12.45;9.43;;;;;;;17.55;63.51;100856.19;4911354;29;20292;-45
2022/08/14 05:06:34;;;;;;;11.45;9.68;;;;;;;17.59;63.71;100853.19;4911903;29;20394;-47
2022/08/14 05:08:59;;;;;;;16.57;9.97;;;;;;;17.59;64.29;100851.34;4911508;29;20111;-43
2022/08/14 05:11:25;;;;;;;12.18;9.82;;;;;;;17.62;64.19;100853.69;4912475;29;20320;-45
2022/08/14 05:13:50;;;;;;;10.10;8.95;;;;;;;17.65;63.75;100858.75;4917392;29;20071;-47
2022/08/14 05:16:16;;;;;;;10.90;8.63;;;;;;;17.70;63.44;100850.19;4904696;29;20503;-45
2022/08/14 05:18:41;;;;;;;11.77;8.77;;;;;;;17.73;63.54;100845.31;4916943;29;20290;-45
2022/08/14 05:21:07;;;;;;;10.53;8.47;;;;;;;17.76;64.32;100852.22;4900211;29;20305;-45
2022/08/14 05:23:35;;;;;;;12.00;8.75;;;;;;;17.81;63.58;100849.88;4916790;29;20272;-44
2022/08/14 05:26:02;;;;;;;9.13;7.93;;;;;;;17.87;63.41;100848.41;4911835;29;20052;-45
2022/08/14 05:28:31;;;;;;;9.90;8.27;;;;;;;17.89;64.05;100849.91;4916653;29;20028;-45
2022/08/14 05:31:00;;;;;;;8.35;7.65;;;;;;;17.97;63.18;100845.56;4915857;29;20028;-45
2022/08/14 05:33:31;;;;;;;9.30;7.90;;;;;;;18.00;63.83;100846.09;4913644;29;20036;-45
2022/08/14 05:36:01;;;;;;;8.48;7.60;;;;;;;18.08;63.28;100848.75;4912152;29;20091;-45
2022/08/14 05:38:32;;;;;;;8.07;7.30;;;;;;;18.14;63.91;100852.66;4914428;29;20036;-46
2022/08/14 05:41:06;;;;;;;9.20;7.13;;;;;;;18.20;62.62;100854.66;4904221;29;20036;-45
2022/08/14 05:43:32;;;;;;;8.63;7.25;;;;;;;18.30;63.15;100854.47;4908248;29;20036;-44
2022/08/14 05:45:58;;;;;;;9.60;7.95;;;;;;;18.36;62.69;100851.13;4903335;29;20031;-44
2022/08/14 05:48:25;;;;;;;8.07;7.18;;;;;;;18.46;62.49;100838.34;4901978;29;20047;-43
2022/08/14 05:50:53;;;;;;;9.18;7.70;;;;;;;18.55;62.46;100839.19;4898080;29;20484;-45
2022/08/14 05:53:20;;;;;;;13.98;7.07;;;;;;;18.62;62.30;100832.13;4910046;29;20044;-45
2022/08/14 05:55:47;;;;;;;8.93;7.57;;;;;;;18.70;62.35;100836.63;4897541;29;20029;-44
2022/08/14 05:58:12;;;;;;;9.20;7.65;;;;;;;18.79;61.79;100840.16;4897529;29;20172;-44
2022/08/14 06:00:40;;;;;;;9.45;7.05;;;;;;;18.85;62.19;100840.34;4907427;29;20425;-45
2022/08/14 06:03:08;;;;;;;9.45;7.50;;;;;;;18.93;61.31;100839.47;4910411;29;20075;-45
2022/08/14 06:05:34;;;;;;;9.30;7.32;;;;;;;19.02;61.20;100835.75;4885805;29;20065;-45
2022/08/14 06:08:00;;;;;;;10.30;7.40;;;;;;;19.14;61.75;100843.47;4896449;29;20103;-41
2022/08/14 06:10:27;;;;;;;12.50;7.50;;;;;;;19.19;60.80;100833.00;4916231;29;20110;-45
2022/08/14 06:12:53;;;;;;;8.98;7.38;;;;;;;19.31;60.65;100838.84;4898588;29;20437;-44
2022/08/14 06:15:18;;;;;;;8.20;6.97;;;;;;;19.42;60.67;100838.47;4890257;29;20036;-44
2022/08/14 06:17:52;;;;;;;10.75;7.00;;;;;;;19.52;60.52;100843.63;4895805;29;20399;-44
2022/08/14 06:20:19;;;;;;;8.27;7.28;;;;;;;19.60;60.17;100839.03;4888861;29;20059;-45
2022/08/14 06:22:45;;;;;;;8.65;6.82;;;;;;;19.71;59.23;100835.09;4879456;29;20115;-44
2022/08/14 06:25:13;;;;;;;7.53;6.63;;;;;;;19.82;58.97;100830.31;4891194;29;20048;-44
2022/08/14 06:27:47;;;;;;;9.63;6.95;;;;;;;19.95;58.56;100827.88;4894362;29;20032;-44
2022/08/14 06:30:15;;;;;;;7.38;6.70;;;;;;;20.11;57.99;100825.06;4892333;29;20438;-44
2022/08/14 06:32:40;;;;;;;13.65;6.63;;;;;;;20.23;58.04;100820.06;4892948;29;20508;-45
2022/08/14 06:35:07;;;;;;;7.78;7.07;;;;;;;20.34;58.14;100824.22;4896042;29;20041;-45
2022/08/14 06:37:48;;;;;;;8.13;6.70;;;;;;;20.46;56.86;100833.53;4893334;29;20068;-44
2022/08/14 06:40:16;;;;;;;12.23;6.82;;;;;;;20.59;56.55;100830.22;4897316;29;20421;-45
2022/08/14 06:42:41;;;;;;;6.80;6.20;;;;;;;20.76;56.64;100827.38;4894356;29;20060;-44
2022/08/14 06:45:07;;;;;;;6.93;6.20;;;;;;;20.84;56.25;100822.72;4892917;29;20131;-44
2022/08/14 06:47:38;;;;;;;7.20;6.18;;;;;;;20.99;55.73;100817.31;4885272;29;20053;-45
2022/08/14 06:50:05;;;;;;;10.60;6.10;;;;;;;21.13;55.40;100814.81;4893906;29;20072;-46
2022/08/14 06:52:31;;;;;;;7.70;6.07;;;;;;;21.22;54.57;100817.22;4895175;29;20108;-43
2022/08/14 06:54:57;;;;;;;6.15;5.65;;;;;;;21.32;54.23;100814.22;4896274;29;20455;-47
2022/08/14 06:57:23;;;;;;;8.75;6.43;;;;;;;21.47;54.16;100819.63;4892491;29;20036;-45
2022/08/14 06:59:48;;;;;;;8.73;6.22;;;;;;;21.62;53.94;100823.13;4896370;29;20079;-45
2022/08/14 07:07:42;;;;;;;7.43;6.05;;;;;;;22.25;52.43;100814.38;4896282;29;20103;-45
2022/08/14 07:10:07;;;;;;;9.07;5.57;;;;;;;22.47;51.20;100809.78;4897805;29;20032;-46
2022/08/14 07:12:33;;;;;;;7.35;5.88;;;;;;;22.65;50.90;100809.28;4899617;29;20119;-50
2022/08/14 07:14:59;;;;;;;7.78;5.78;;;;;;;22.92;50.18;100804.88;4900527;29;20088;-48
2022/08/14 07:17:24;;;;;;;6.35;5.68;;;;;;;23.18;49.10;100802.50;4900506;29;20346;-46
2022/08/14 07:19:49;;;;;;;6.10;5.50;;;;;;;23.45;48.52;100795.34;4901035;29;20033;-48
2022/08/14 07:22:15;;;;;;;6.87;5.20;;;;;;;23.74;47.77;100798.75;4901231;29;20072;-47
2022/08/14 07:24:40;;;;;;;6.63;5.40;;;;;;;24.03;47.40;100805.69;4897824;29;20297;-46
2022/08/14 07:27:05;;;;;;;5.53;5.03;;;;;;;24.26;46.42;100801.72;4907739;29;20123;-47
2022/08/14 07:29:31;;;;;;;8.10;4.97;;;;;;;24.67;45.55;100806.13;4900932;29;20301;-50
2022/08/14 07:31:56;;;;;;;6.82;4.95;;;;;;;24.98;44.85;100801.84;4910528;29;20292;-47
2022/08/14 07:34:22;;;;;;;6.80;4.97;;;;;;;25.19;44.21;100803.44;4912897;29;20032;-50
2022/08/14 07:36:47;;;;;;;6.07;5.50;;;;;;;25.41;43.28;100801.28;4905416;29;20292;-50
2022/08/14 07:39:13;;;;;;;6.33;4.73;;;;;;;25.77;43.43;100797.94;4905328;29;20125;-50
2022/08/14 07:41:39;;;;;;;9.57;5.23;;;;;;;25.98;43.21;100795.91;4900490;29;20028;-49
2022/08/14 07:44:04;;;;;;;5.38;4.82;;;;;;;26.23;43.64;100793.25;4906509;29;20788;-47
2022/08/14 07:46:29;;;;;;;8.10;5.28;;;;;;;26.50;41.78;100788.38;4912585;29;20115;-48
2022/08/14 07:48:55;;;;;;;5.67;4.90;;;;;;;26.73;41.73;100795.06;4901147;29;20167;-48
2022/08/14 07:51:21;;;;;;;7.03;4.68;;;;;;;26.88;41.67;100797.41;4900577;29;20785;-49
2022/08/14 07:53:47;;;;;;;6.93;5.03;;;;;;;27.12;39.76;100788.31;4915775;29;20031;-51
2022/08/14 07:56:12;;;;;;;10.73;4.63;;;;;;;27.35;41.24;100797.72;4917899;29;20029;-47
2022/08/14 07:58:37;;;;;;;8.18;4.78;;;;;;;27.52;39.72;100787.00;4900415;29;20028;-46
2022/08/14 08:01:05;;;;;;;6.83;4.40;;;;;;;27.69;38.24;100789.91;4909275;29;20032;-47
2022/08/14 08:03:33;;;;;;;7.07;4.40;;;;;;;27.80;38.26;100786.38;4903794;29;20107;-47
2022/08/14 08:05:59;;;;;;;7.85;4.28;;;;;;;28.08;38.09;100795.84;4892911;29;20051;-47
2022/08/14 08:08:28;;;;;;;8.35;5.13;;;;;;;28.20;36.58;100793.94;4899874;29;20043;-47
2022/08/14 08:10:56;;;;;;;;;;;;;;;28.47;39.22;100793.47;4903383;29;20040;-45
2022/08/14 08:13:22;;;;;;;8.13;4.25;;;;;;;28.74;36.52;100787.53;4904760;29;19915;-46
2022/08/14 08:15:55;;;;;;;7.95;4.40;;;;;;;28.92;36.01;100789.31;4899654;29;20044;-46
2022/08/14 08:18:21;;;;;;;5.55;4.45;;;;;;;29.21;35.92;100782.00;4900945;29;20032;-47
2022/08/14 08:20:52;;;;;;;6.80;4.25;;;;;;;29.37;34.96;100776.81;4899466;29;20510;-46
2022/08/14 08:23:18;;;;;;;6.55;4.45;;;;;;;29.56;34.05;100766.50;4906184;29;20040;-47
2022/08/14 08:25:47;;;;;;;5.40;4.60;;;;;;;29.63;33.80;100765.28;4904827;29;20420;-47
2022/08/14 08:28:19;;;;;;;4.47;4.07;;;;;;;29.91;33.70;100766.34;4910105;29;20111;-47
2022/08/14 08:30:59;;;;;;;7.28;4.32;;;;;;;30.26;34.66;100754.28;4899523;29;20030;-46
2022/08/14 08:33:27;;;;;;;6.10;3.85;;;;;;;30.58;32.92;100764.63;4899838;29;20096;-47
2022/08/14 08:35:56;;;;;;;5.53;4.07;;;;;;;30.76;32.79;100764.31;4903813;29;20511;-44
2022/08/14 08:38:27;;;;;;;4.28;3.72;;;;;;;30.93;31.54;100766.16;4903755;29;20068;-44
2022/08/14 08:40:58;;;;;;;5.50;3.72;;;;;;;31.26;32.42;100778.09;4903028;29;20048;-45
2022/08/14 08:43:26;;;;;;;6.38;4.20;;;;;;;31.45;31.24;100773.09;4904163;29;20032;-44
2022/08/14 08:46:15;;;;;;;;;;;;;;;31.65;33.56;100769.75;4901410;29;20045;-44
2022/08/14 08:48:56;;;;;;;6.60;4.13;;;;;;;31.78;30.54;100763.81;4894347;29;20344;-45
2022/08/14 08:51:36;;;;;;;4.18;3.70;;;;;;;32.12;30.57;100765.50;4891593;29;20064;-46
2022/08/14 08:54:12;;;;;;;5.45;3.92;;;;;;;32.28;30.03;100757.06;4896980;29;20025;-46
2022/08/14 08:56:45;;;;;;;6.47;3.58;;;;;;;32.33;29.65;100761.78;4914241;29;20040;-47
2022/08/14 08:59:21;;;;;;;5.70;3.58;;;;;;;32.69;29.53;100755.69;4903314;29;20460;-46
2022/08/14 09:01:52;;;;;;;3.80;3.50;;;;;;;32.73;27.52;100762.31;4914039;29;20534;-46
2022/08/14 09:04:19;;;;;;;9.18;3.63;;;;;;;32.99;27.66;100755.81;4907921;29;20099;-46
2022/08/14 09:06:46;;;;;;;18.25;3.97;;;;;;;33.10;25.98;100756.66;4908341;29;20024;-48
2022/08/14 09:09:23;;;;;;;4.13;3.63;;;;;;;33.28;27.57;100752.63;4909067;29;20051;-47
2022/08/14 09:11:50;;;;;;;4.38;3.67;;;;;;;33.64;25.95;100746.31;4896879;29;20109;-46
2022/08/14 09:14:16;;;;;;;6.72;3.70;;;;;;;33.66;26.11;100741.34;4904613;29;20111;-47
2022/08/14 09:16:42;;;;;;;4.40;3.22;;;;;;;33.89;27.27;100743.59;4905778;29;20471;-47
2022/08/14 09:19:08;;;;;;;4.00;3.58;;;;;;;33.98;25.78;100738.34;4909244;29;20023;-46
2022/08/14 09:21:36;;;;;;;8.63;3.70;;;;;;;33.94;25.59;100731.72;4904661;29;20398;-45
2022/08/14 09:24:01;;;;;;;6.18;3.50;;;;;;;34.15;24.89;100732.53;4904037;29;20032;-45
2022/08/14 09:26:26;;;;;;;3.22;3.03;;;;;;;34.28;24.45;100731.16;4911157;29;20103;-44
2022/08/14 09:28:52;;;;;;;4.78;2.88;;;;;;;34.41;23.89;100725.06;4907281;29;20041;-47
2022/08/14 09:31:18;;;;;;;3.28;2.97;;;;;;;34.82;24.34;100733.22;4908645;29;20052;-47
2022/08/14 09:33:59;;;;;;;9.40;3.50;;;;;;;34.97;26.23;100735.03;4908346;29;20115;-47
2022/08/14 09:36:34;;;;;;;4.68;3.00;;;;;;;35.08;23.79;100727.56;4917060;29;20024;-45
2022/08/14 09:39:24;;;;;;;3.47;2.78;;;;;;;35.26;24.99;100722.50;4906747;29;20399;-48
2022/08/14 09:41:59;;;;;;;2.78;2.53;;;;;;;35.37;22.66;100722.16;4917409;29;20051;-45
2022/08/14 09:44:44;;;;;;;3.17;2.58;;;;;;;35.53;24.26;100713.75;4916951;29;20032;-46
2022/08/14 09:47:10;;;;;;;3.63;3.28;;;;;;;35.72;23.22;100697.25;4909624;29;20040;-47
2022/08/14 09:49:37;;;;;;;4.75;3.20;;;;;;;35.76;23.50;100706.66;4898874;29;20025;-46
2022/08/14 09:52:11;;;;;;;5.47;3.00;;;;;;;36.02;22.87;100696.16;4898296;29;20045;-46
2022/08/14 09:54:46;;;;;;;3.53;2.97;;;;;;;35.87;22.22;100705.44;4898268;29;20312;-50
2022/08/14 09:57:24;;;;;;;5.85;2.83;;;;;;;36.06;22.96;100696.44;4902487;29;20040;-49
2022/08/14 09:59:50;;;;;;;5.28;3.00;;;;;;;36.23;22.61;100691.28;4908422;29;20083;-51
2022/08/14 10:02:36;;;;;;;4.68;2.95;;;;;;;36.46;23.10;100691.56;4913587;29;20027;-50
2022/08/14 10:05:06;;;;;;;6.57;2.92;;;;;;;36.58;22.18;100688.38;4908975;29;20087;-46
2022/08/14 10:07:51;;;;;;;6.82;2.83;;;;;;;36.21;22.84;100685.19;4907359;29;20388;-46
2022/08/14 10:10:37;;;;;;;3.88;2.97;;;;;;;36.68;23.43;100675.22;4904433;29;20032;-47
2022/08/14 10:13:05;;;;;;;3.97;3.10;;;;;;;36.76;22.14;100679.31;4910954;29;20019;-46
2022/08/14 10:15:31;;;;;;;4.25;3.20;;;;;;;36.62;22.10;100676.44;4914462;29;20032;-49
2022/08/14 10:18:12;;;;;;;6.35;2.97;;;;;;;36.68;23.69;100666.09;4910311;29;20039;-47
2022/08/14 10:20:41;;;;;;;3.95;3.47;;;;;;;36.70;23.46;100665.81;4896743;29;20124;-47
2022/08/14 10:23:15;;;;;;;4.47;3.47;;;;;;;36.98;23.10;100659.31;4895386;29;20085;-50
2022/08/14 10:25:49;;;;;;;5.32;2.83;;;;;;;37.11;22.37;100668.81;4892480;29;20465;-48
2022/08/14 10:28:19;;;;;;;6.18;3.00;;;;;;;36.94;22.38;100661.06;4896446;29;20531;-47
2022/08/14 10:30:49;;;;;;;3.10;2.80;;;;;;;37.04;21.91;100663.66;4895895;29;20596;-46
2022/08/14 10:33:32;;;;;;;5.30;3.00;;;;;;;37.42;23.17;100660.03;4884674;29;20080;-47
2022/08/14 10:35:59;;;;;;;6.57;2.95;;;;;;;37.34;22.53;100646.88;4895959;29;20610;-47
2022/08/14 10:38:35;;;;;;;7.35;3.47;;;;;;;37.50;22.37;100647.44;4892649;29;20068;-47
2022/08/14 10:41:16;;;;;;;5.97;3.10;;;;;;;37.88;22.51;100650.13;4894260;29;20048;-47
2022/08/14 10:43:43;;;;;;;3.53;2.63;;;;;;;38.18;22.05;100636.81;4896508;29;20032;-46
2022/08/14 10:46:17;;;;;;;4.13;3.38;;;;;;;38.17;21.93;100637.91;4896112;29;20062;-46
2022/08/14 10:49:01;;;;;;;5.75;3.22;;;;;;;38.32;21.79;100637.59;4891135;29;20107;-47
2022/08/14 10:51:28;;;;;;;3.30;3.00;;;;;;;38.26;20.50;100636.88;4894052;29;20056;-46
2022/08/14 10:53:54;;;;;;;5.28;3.45;;;;;;;38.28;20.97;100634.63;4895365;29;20360;-46
2022/08/14 10:56:31;;;;;;;3.00;2.80;;;;;;;38.46;21.54;100630.09;4892536;29;20047;-46
2022/08/14 10:59:07;;;;;;;4.25;2.90;;;;;;;38.61;21.41;100625.38;4896173;29;20374;-46
2022/08/14 11:01:34;;;;;;;8.00;3.40;;;;;;;38.42;20.70;100619.91;4895603;29;20048;-46
2022/08/14 11:04:00;;;;;;;5.53;3.60;;;;;;;38.47;20.66;100622.56;4894670;29;20040;-47
2022/08/14 11:06:27;;;;;;;5.50;3.38;;;;;;;38.25;20.87;100624.16;4895776;29;20048;-46
2022/08/14 11:08:54;;;;;;;4.40;2.90;;;;;;;38.15;20.63;100627.13;4886995;29;20033;-47
2022/08/14 11:11:24;;;;;;;3.20;2.90;;;;;;;38.06;20.79;100626.19;4896265;29;20478;-47
2022/08/14 11:13:50;;;;;;;4.03;2.75;;;;;;;38.38;19.55;100627.22;4883107;29;20198;-47
2022/08/14 11:16:17;;;;;;;3.40;2.50;;;;;;;38.24;19.17;100619.75;4886234;29;20120;-46
2022/08/14 11:18:45;;;;;;;3.20;2.65;;;;;;;38.13;19.93;100626.63;4885296;29;20028;-46
2022/08/14 11:21:16;;;;;;;3.42;2.60;;;;;;;38.26;19.50;100624.97;4894107;29;20510;-46
2022/08/14 11:23:44;;;;;;;2.88;2.50;;;;;;;37.94;19.22;100615.63;4892811;29;20040;-46
2022/08/14 11:26:11;;;;;;;2.97;2.67;;;;;;;38.12;20.40;100623.00;4894229;29;20064;-47
2022/08/14 11:28:42;;;;;;;5.78;2.97;;;;;;;38.15;20.20;100613.28;4894474;29;20036;-47
2022/08/14 11:31:09;;;;;;;4.35;2.78;;;;;;;38.37;19.12;100617.25;4894407;29;20100;-47
2022/08/14 11:33:36;;;;;;;3.08;2.70;;;;;;;38.33;19.35;100619.81;4894476;29;20028;-47
2022/08/14 11:36:04;;;;;;;4.60;3.03;;;;;;;38.45;19.22;100619.28;4894036;29;20163;-47
2022/08/14 11:38:41;;;;;;;2.80;2.45;;;;;;;38.57;19.87;100607.66;4894416;29;20136;-49
2022/08/14 11:41:08;;;;;;;5.18;2.85;;;;;;;38.51;18.59;100601.41;4892326;29;20048;-49
2022/08/14 11:43:45;;;;;;;4.47;2.42;;;;;;;38.24;18.87;100599.47;4894478;29;20039;-46
2022/08/14 11:46:12;;;;;;;2.88;2.30;;;;;;;38.29;18.49;100589.13;4893289;29;20063;-47
2022/08/14 11:49:04;;;;;;;4.63;2.65;;;;;;;38.65;19.98;100579.19;4893493;29;20036;-47